createdAt,value
2018-08-22T00:02:25.982Z,19.00
2018-08-22T00:04:54.114Z,19.00
2018-08-22T00:07:22.278Z,19.00
2018-08-22T00:09:50.400Z,18.90
2018-08-22T00:12:18.541Z,18.80
2018-08-22T00:14:46.693Z,18.80
2018-08-22T00:17:14.848Z,18.80
2018-08-22T00:19:42.977Z,18.80
2018-08-22T00:22:11.142Z,18.90
2018-08-22T00:24:39.282Z,18.90
2018-08-22T00:27:07.433Z,18.90
2018-08-22T00:29:35.593Z,18.80
2018-08-22T00:32:03.746Z,18.50
2018-08-22T00:34:31.886Z,18.40
2018-08-22T00:37:00.017Z,18.40
2018-08-22T00:39:28.176Z,18.40
2018-08-22T00:41:56.309Z,18.50
2018-08-22T00:44:24.449Z,18.50
2018-08-22T00:46:52.589Z,18.50
2018-08-22T00:49:20.756Z,18.50
2018-08-22T00:51:48.890Z,18.50
2018-08-22T00:54:17.042Z,18.30
2018-08-22T00:56:45.173Z,18.20
2018-08-22T00:59:13.321Z,18.00
2018-08-22T01:01:41.460Z,17.80
2018-08-22T01:04:09.592Z,17.80
2018-08-22T01:06:37.754Z,17.80
2018-08-22T01:14:01.662Z,17.60
2018-08-22T01:16:29.799Z,17.50
2018-08-22T01:19:08.848Z,17.30
2018-08-22T01:21:36.997Z,17.20
2018-08-22T01:24:05.189Z,17.10
2018-08-22T01:26:33.334Z,17.20
2018-08-22T01:29:01.489Z,17.10
2018-08-22T01:31:29.610Z,17.20
2018-08-22T01:33:57.741Z,17.20
2018-08-22T01:36:25.866Z,17.20
2018-08-22T01:38:53.993Z,17.20
2018-08-22T01:41:22.115Z,17.10
2018-08-22T01:43:50.261Z,17.10
2018-08-22T01:46:18.406Z,17.00
2018-08-22T01:48:46.530Z,17.00
2018-08-22T01:51:14.687Z,16.90
2018-08-22T01:53:42.825Z,16.80
2018-08-22T01:56:10.953Z,16.70
2018-08-22T01:58:39.079Z,16.60
2018-08-22T02:01:07.234Z,16.60
2018-08-22T02:03:35.355Z,16.50
2018-08-22T02:06:03.485Z,16.50
2018-08-22T02:08:31.602Z,16.40
2018-08-22T02:10:59.799Z,16.40
2018-08-22T02:13:27.913Z,16.40
2018-08-22T02:15:56.093Z,16.40
2018-08-22T02:18:24.225Z,16.50
2018-08-22T02:20:52.353Z,16.50
2018-08-22T02:23:20.482Z,16.40
2018-08-22T02:25:48.629Z,16.40
2018-08-22T02:28:16.743Z,16.40
2018-08-22T02:30:44.880Z,16.40
2018-08-22T02:33:13.035Z,16.50
2018-08-22T02:35:41.170Z,16.50
2018-08-22T02:38:09.294Z,16.40
2018-08-22T02:40:37.418Z,16.40
2018-08-22T02:43:05.538Z,16.20
2018-08-22T02:45:33.675Z,16.10
2018-08-22T02:48:01.790Z,16.00
2018-08-22T02:50:29.913Z,15.90
2018-08-22T02:52:58.026Z,15.80
2018-08-22T02:55:26.158Z,15.80
2018-08-22T02:57:54.290Z,15.90
2018-08-22T03:00:22.951Z,15.90
2018-08-22T03:02:51.078Z,15.80
2018-08-22T03:05:19.233Z,15.80
2018-08-22T03:07:47.346Z,15.90
2018-08-22T03:10:15.598Z,15.80
2018-08-22T03:12:43.724Z,15.80
2018-08-22T03:15:11.855Z,15.80
2018-08-22T03:17:39.979Z,15.80
2018-08-22T03:20:08.139Z,15.70
2018-08-22T03:22:36.253Z,15.70
2018-08-22T03:25:04.389Z,15.70
2018-08-22T03:27:32.534Z,15.70
2018-08-22T03:30:00.657Z,15.80
2018-08-22T03:32:28.789Z,15.80
2018-08-22T03:34:56.930Z,15.90
2018-08-22T03:37:25.074Z,16.00
2018-08-22T03:39:53.286Z,16.00
2018-08-22T03:42:21.441Z,16.00
2018-08-22T03:44:49.637Z,15.90
2018-08-22T03:47:17.773Z,16.00
2018-08-22T03:49:45.898Z,16.00
2018-08-22T03:52:14.026Z,16.00
2018-08-22T03:54:42.165Z,16.10
2018-08-22T03:57:10.328Z,16.00
2018-08-22T03:59:38.452Z,16.00
2018-08-22T04:02:06.629Z,16.10
2018-08-22T04:04:34.775Z,16.10
2018-08-22T04:07:02.910Z,16.00
2018-08-22T04:09:31.054Z,16.00
2018-08-22T04:11:59.186Z,16.00
2018-08-22T04:14:27.350Z,15.90
2018-08-22T04:16:55.480Z,15.90
2018-08-22T04:19:23.638Z,15.90
2018-08-22T04:21:51.774Z,15.90
2018-08-22T04:24:19.917Z,15.80
2018-08-22T04:26:48.277Z,15.80
2018-08-22T04:29:16.401Z,15.80
2018-08-22T04:31:44.550Z,15.70
2018-08-22T04:34:12.682Z,15.70
2018-08-22T04:36:40.821Z,15.80
2018-08-22T04:39:09.685Z,15.80
2018-08-22T04:41:37.840Z,15.90
2018-08-22T04:44:06.057Z,15.90
2018-08-22T04:46:34.397Z,15.90
2018-08-22T04:49:02.648Z,15.90
2018-08-22T04:51:30.911Z,15.90
2018-08-22T04:53:59.059Z,15.80
2018-08-22T04:56:27.201Z,15.80
2018-08-22T04:58:55.349Z,15.80
2018-08-22T05:01:23.498Z,15.80
2018-08-22T05:03:51.641Z,15.80
2018-08-22T05:06:19.782Z,15.90
2018-08-22T05:08:47.926Z,15.90
2018-08-22T05:11:16.074Z,16.00
2018-08-22T05:13:44.209Z,16.10
2018-08-22T05:16:12.349Z,16.10
2018-08-22T05:18:40.509Z,16.20
2018-08-22T05:21:08.649Z,16.20
2018-08-22T05:23:36.866Z,16.20
2018-08-22T05:26:05.033Z,16.40
2018-08-22T05:28:33.182Z,16.50
2018-08-22T05:31:01.306Z,16.60
2018-08-22T05:33:29.445Z,16.70
2018-08-22T05:35:57.570Z,16.80
2018-08-22T05:38:25.733Z,17.00
2018-08-22T05:40:54.014Z,17.10
2018-08-22T05:43:22.440Z,17.20
2018-08-22T05:45:50.569Z,17.30
2018-08-22T05:48:18.718Z,17.40
2018-08-22T05:50:46.849Z,17.50
2018-08-22T05:53:14.982Z,17.60
2018-08-22T05:55:43.137Z,17.70
2018-08-22T05:58:11.554Z,17.80
2018-08-22T06:00:40.669Z,17.90
2018-08-22T06:03:08.832Z,18.00
2018-08-22T06:05:36.963Z,18.10
2018-08-22T06:08:05.088Z,18.20
2018-08-22T06:10:33.254Z,18.30
2018-08-22T06:13:01.374Z,18.50
2018-08-22T06:15:29.499Z,18.70
2018-08-22T06:17:57.861Z,18.90
2018-08-22T06:20:26.234Z,19.00
2018-08-22T06:22:54.364Z,19.20
2018-08-22T06:25:22.532Z,19.30
2018-08-22T06:27:50.735Z,19.40
2018-08-22T06:30:18.878Z,19.50
2018-08-22T06:32:47.070Z,19.60
2018-08-22T06:35:15.207Z,19.70
2018-08-22T06:37:43.333Z,19.70
2018-08-22T06:40:11.523Z,19.80
2018-08-22T06:42:39.753Z,19.90
2018-08-22T06:45:08.706Z,20.00
2018-08-22T06:47:36.847Z,20.10
2018-08-22T06:50:05.117Z,20.20
2018-08-22T06:52:33.258Z,20.30
2018-08-22T06:55:01.483Z,20.30
2018-08-22T06:57:29.597Z,20.50
2018-08-22T06:59:57.746Z,20.60
2018-08-22T07:02:25.858Z,20.60
2018-08-22T07:04:53.990Z,20.70
2018-08-22T07:07:22.140Z,20.80
2018-08-22T07:09:50.298Z,20.90
2018-08-22T07:12:18.414Z,21.00
2018-08-22T07:14:46.546Z,21.10
2018-08-22T07:17:14.742Z,21.10
2018-08-22T07:19:42.862Z,21.20
2018-08-22T07:22:10.973Z,21.30
2018-08-22T07:24:39.102Z,21.40
2018-08-22T07:27:07.217Z,21.40
2018-08-22T07:29:35.440Z,21.50
2018-08-22T07:32:03.605Z,21.50
2018-08-22T07:34:31.733Z,21.60
2018-08-22T07:36:59.926Z,21.70
2018-08-22T07:44:22.261Z,21.90
2018-08-22T07:46:50.387Z,22.00
2018-08-22T07:49:18.514Z,22.10
2018-08-22T07:51:46.647Z,22.20
2018-08-22T07:54:14.757Z,22.30
2018-08-22T07:56:42.907Z,22.40
2018-08-22T07:59:15.773Z,22.40
2018-08-22T08:01:43.935Z,22.50
2018-08-22T08:04:12.921Z,22.60
2018-08-22T08:06:41.410Z,22.70
2018-08-22T08:09:11.826Z,22.80
2018-08-22T08:11:39.958Z,22.90
2018-08-22T08:14:08.535Z,22.80
2018-08-22T08:16:38.559Z,23.00
2018-08-22T08:19:07.186Z,23.10
2018-08-22T08:21:35.338Z,23.20
2018-08-22T08:24:03.526Z,23.30
2018-08-22T08:26:31.655Z,23.50
2018-08-22T08:28:59.778Z,23.50
2018-08-22T08:31:27.997Z,23.50
2018-08-22T08:33:56.126Z,23.70
2018-08-22T08:36:24.266Z,23.80
2018-08-22T08:38:52.386Z,23.90
2018-08-22T08:41:20.534Z,24.00
2018-08-22T08:43:48.685Z,24.20
2018-08-22T08:46:16.805Z,24.30
2018-08-22T08:48:44.950Z,24.40
2018-08-22T08:51:13.106Z,24.40
2018-08-22T08:53:41.222Z,24.50
2018-08-22T08:56:09.411Z,24.70
2018-08-22T08:58:37.498Z,24.70
2018-08-22T09:01:05.662Z,24.80
2018-08-22T09:03:33.798Z,24.90
2018-08-22T09:06:01.939Z,25.10
2018-08-22T09:08:30.162Z,25.20
2018-08-22T09:10:58.306Z,25.20
2018-08-22T09:13:26.426Z,25.30
2018-08-22T09:15:54.557Z,25.40
2018-08-22T09:18:22.698Z,25.50
2018-08-22T09:20:50.833Z,25.60
2018-08-22T09:23:18.957Z,25.80
2018-08-22T09:25:47.083Z,26.00
2018-08-22T09:28:15.362Z,26.10
2018-08-22T09:30:43.420Z,26.30
2018-08-22T09:33:11.564Z,26.40
2018-08-22T09:35:39.694Z,26.60
2018-08-22T09:38:07.837Z,26.60
2018-08-22T09:40:35.982Z,26.60
2018-08-22T09:43:04.140Z,26.80
2018-08-22T09:45:32.248Z,27.00
2018-08-22T09:48:00.409Z,27.10
2018-08-22T09:50:28.545Z,27.30
2018-08-22T09:52:56.686Z,27.40
2018-08-22T09:55:24.830Z,27.60
2018-08-22T09:57:52.961Z,27.70
2018-08-22T10:00:26.610Z,27.70
2018-08-22T10:02:54.782Z,27.90
2018-08-22T10:05:22.966Z,27.70
2018-08-22T10:07:51.110Z,27.60
2018-08-22T10:10:19.251Z,27.70
2018-08-22T10:12:47.413Z,27.70
2018-08-22T10:15:15.541Z,27.70
2018-08-22T10:17:43.687Z,27.80
2018-08-22T10:20:11.836Z,28.00
2018-08-22T10:22:40.000Z,28.20
2018-08-22T10:25:08.180Z,28.30
2018-08-22T10:27:36.305Z,28.30
2018-08-22T10:30:04.608Z,28.40
2018-08-22T10:32:32.790Z,28.40
2018-08-22T10:35:00.918Z,28.40
2018-08-22T10:37:29.014Z,28.40
2018-08-22T10:39:57.130Z,28.80
2018-08-22T10:42:25.254Z,28.90
2018-08-22T10:44:53.401Z,29.10
2018-08-22T10:47:21.535Z,29.30
2018-08-22T10:49:49.678Z,29.40
2018-08-22T10:52:17.789Z,29.30
2018-08-22T10:54:45.909Z,29.40
2018-08-22T10:57:14.042Z,29.50
2018-08-22T10:59:42.161Z,29.60
2018-08-22T11:03:35.436Z,29.90
2018-08-22T11:06:03.595Z,30.10
2018-08-22T11:08:31.814Z,30.20
2018-08-22T11:10:59.929Z,30.20
2018-08-22T11:13:28.060Z,30.30
2018-08-22T11:15:56.294Z,30.50
2018-08-22T11:18:24.325Z,30.50
2018-08-22T11:20:52.788Z,30.70
2018-08-22T11:23:33.049Z,30.80
2018-08-22T11:26:13.202Z,30.90
2018-08-22T11:28:52.639Z,30.90
2018-08-22T11:31:32.366Z,30.90
2018-08-22T11:34:11.981Z,31.00
2018-08-22T11:36:41.010Z,31.10
2018-08-22T11:39:09.141Z,31.10
2018-08-22T11:41:37.274Z,31.20
2018-08-22T11:44:05.381Z,31.20
2018-08-22T11:46:33.514Z,31.30
2018-08-22T11:49:01.663Z,31.30
2018-08-22T11:51:29.818Z,31.10
2018-08-22T11:53:57.941Z,30.90
2018-08-22T11:56:26.057Z,30.90
2018-08-22T11:58:54.184Z,30.80
2018-08-22T12:01:22.310Z,30.90
2018-08-22T12:03:50.773Z,31.10
2018-08-22T12:06:18.916Z,31.20
2018-08-22T12:08:47.021Z,31.40
2018-08-22T12:11:15.159Z,31.40
2018-08-22T12:13:43.277Z,31.50
2018-08-22T12:16:11.464Z,31.30
2018-08-22T12:18:39.541Z,31.40
2018-08-22T12:21:07.684Z,31.50
2018-08-22T12:23:35.794Z,31.50
2018-08-22T12:26:03.933Z,31.50
2018-08-22T12:28:32.049Z,31.50
2018-08-22T12:31:00.208Z,31.30
2018-08-22T12:33:28.305Z,31.30
2018-08-22T12:35:56.453Z,31.30
2018-08-22T12:38:24.607Z,31.30
2018-08-22T12:40:52.740Z,31.40
2018-08-22T12:43:20.865Z,31.50
2018-08-22T12:45:49.012Z,31.60
2018-08-22T12:48:17.165Z,31.60
2018-08-22T12:50:45.301Z,31.50
2018-08-22T12:53:13.431Z,31.40
2018-08-22T12:55:41.566Z,31.30
2018-08-22T12:58:09.681Z,31.40
2018-08-22T13:00:37.853Z,31.40
2018-08-22T13:03:06.009Z,31.50
2018-08-22T13:05:34.138Z,31.60
2018-08-22T13:08:02.274Z,31.50
2018-08-22T13:10:30.385Z,31.50
2018-08-22T13:12:58.578Z,31.40
2018-08-22T13:15:26.725Z,31.40
2018-08-22T13:17:54.864Z,31.40
2018-08-22T13:20:23.111Z,31.30
2018-08-22T13:22:51.250Z,31.20
2018-08-22T13:25:19.393Z,31.30
2018-08-22T13:27:47.513Z,31.30
2018-08-22T13:30:15.650Z,31.30
2018-08-22T13:32:43.774Z,31.20
2018-08-22T13:35:11.956Z,31.10
2018-08-22T13:37:40.108Z,31.00
2018-08-22T13:40:08.222Z,31.00
2018-08-22T13:42:36.355Z,30.80
2018-08-22T13:45:04.494Z,30.80
2018-08-22T13:47:32.605Z,30.80
2018-08-22T13:50:00.736Z,30.80
2018-08-22T13:52:28.861Z,30.70
2018-08-22T13:54:57.025Z,30.60
2018-08-22T13:57:25.238Z,30.50
2018-08-22T13:59:53.357Z,30.40
2018-08-22T14:03:35.485Z,30.40
2018-08-22T14:06:03.602Z,30.30
2018-08-22T14:08:31.721Z,30.10
2018-08-22T14:10:59.850Z,30.00
2018-08-22T14:13:27.975Z,29.90
2018-08-22T14:15:56.147Z,29.80
2018-08-22T14:18:24.285Z,29.70
2018-08-22T14:20:52.406Z,29.60
2018-08-22T14:23:20.542Z,29.60
2018-08-22T14:25:48.683Z,29.50
2018-08-22T14:28:16.931Z,29.40
2018-08-22T14:30:44.969Z,29.30
2018-08-22T14:33:13.118Z,29.10
2018-08-22T14:35:41.266Z,28.60
2018-08-22T14:38:09.422Z,28.00
2018-08-22T14:40:37.567Z,27.20
2018-08-22T14:43:05.745Z,26.40
2018-08-22T14:45:33.882Z,25.70
2018-08-22T14:48:02.051Z,25.50
2018-08-22T14:50:30.190Z,25.20
2018-08-22T14:52:58.334Z,25.10
2018-08-22T14:55:26.449Z,24.90
2018-08-22T14:57:54.582Z,24.80
2018-08-22T15:00:22.707Z,24.80
2018-08-22T15:02:51.044Z,24.70
2018-08-22T15:05:18.974Z,24.60
2018-08-22T15:07:47.115Z,24.60
2018-08-22T15:10:16.643Z,24.70
2018-08-22T15:12:44.937Z,24.80
2018-08-22T15:15:12.970Z,24.90
2018-08-22T15:17:41.105Z,24.90
2018-08-22T15:20:09.230Z,25.00
2018-08-22T15:22:37.364Z,25.00
2018-08-22T15:25:06.099Z,25.00
2018-08-22T15:27:34.229Z,25.10
2018-08-22T15:30:02.476Z,25.20
2018-08-22T15:32:30.522Z,25.20
2018-08-22T15:34:58.696Z,25.10
2018-08-22T15:37:26.914Z,25.10
2018-08-22T15:39:55.058Z,25.20
2018-08-22T15:42:23.195Z,25.30
2018-08-22T15:44:51.321Z,25.00
2018-08-22T15:47:19.535Z,24.80
2018-08-22T15:49:47.638Z,24.60
2018-08-22T15:52:15.950Z,24.50
2018-08-22T15:54:56.014Z,24.60
2018-08-22T15:57:24.148Z,24.80
2018-08-22T15:59:52.304Z,25.10
2018-08-22T16:02:20.430Z,25.30
2018-08-22T16:04:53.986Z,25.50
2018-08-22T16:07:22.114Z,25.80
2018-08-22T16:09:50.281Z,26.00
2018-08-22T16:12:18.433Z,26.10
2018-08-22T16:14:46.573Z,26.10
2018-08-22T16:17:14.702Z,26.10
2018-08-22T16:19:42.833Z,26.20
2018-08-22T16:22:10.985Z,26.30
2018-08-22T16:24:41.126Z,26.40
2018-08-22T16:27:09.264Z,26.70
2018-08-22T16:29:37.406Z,26.90
2018-08-22T16:32:05.667Z,27.00
2018-08-22T16:34:33.841Z,27.20
2018-08-22T16:37:01.978Z,27.10
2018-08-22T16:39:40.238Z,27.00
2018-08-22T16:42:08.830Z,26.80
2018-08-22T16:44:36.957Z,26.60
2018-08-22T16:47:05.365Z,26.50
2018-08-22T16:49:33.566Z,26.50
2018-08-22T16:52:01.670Z,26.40
2018-08-22T16:54:29.798Z,26.40
2018-08-22T16:56:57.986Z,26.50
2018-08-22T16:59:26.125Z,26.50
2018-08-22T17:01:54.274Z,26.60
2018-08-22T17:04:22.411Z,26.60
2018-08-22T17:06:50.542Z,26.60
2018-08-22T17:09:18.684Z,26.70
2018-08-22T17:11:46.816Z,26.70
2018-08-22T17:14:14.945Z,26.80
2018-08-22T17:16:43.080Z,26.70
2018-08-22T17:19:11.216Z,26.80
2018-08-22T17:21:39.338Z,26.80
2018-08-22T17:24:07.466Z,26.70
2018-08-22T17:26:35.594Z,26.80
2018-08-22T17:29:03.774Z,26.80
2018-08-22T17:31:31.903Z,26.80
2018-08-22T17:34:01.292Z,26.80
2018-08-22T17:36:29.478Z,26.80
2018-08-22T17:38:58.570Z,26.80
2018-08-22T17:41:28.178Z,26.80
2018-08-22T17:44:07.303Z,26.80
2018-08-22T17:46:39.702Z,26.80
2018-08-22T17:49:07.855Z,26.70
2018-08-22T17:51:47.822Z,26.70
2018-08-22T17:54:15.946Z,26.70
2018-08-22T17:56:44.098Z,26.60
2018-08-22T17:59:12.235Z,26.60
2018-08-22T18:01:40.365Z,26.50
2018-08-22T18:04:08.493Z,26.40
2018-08-22T18:06:36.623Z,26.20
2018-08-22T18:09:05.885Z,26.10
2018-08-22T18:11:34.016Z,26.00
2018-08-22T18:14:02.194Z,25.90
2018-08-22T18:16:30.320Z,25.70
2018-08-22T18:18:58.443Z,25.60
2018-08-22T18:21:30.398Z,25.50
2018-08-22T18:23:58.517Z,25.30
2018-08-22T18:26:26.662Z,25.20
2018-08-22T18:28:54.774Z,25.10
2018-08-22T18:31:22.942Z,24.90
2018-08-22T18:33:59.447Z,24.80
2018-08-22T18:36:28.654Z,24.70
2018-08-22T18:39:04.207Z,24.60
2018-08-22T18:41:32.336Z,24.50
2018-08-22T18:44:00.543Z,24.40
2018-08-22T18:46:28.686Z,24.30
2018-08-22T18:48:56.813Z,24.10
2018-08-22T18:51:24.941Z,23.80
2018-08-22T18:53:53.057Z,23.60
2018-08-22T18:56:22.030Z,23.50
2018-08-22T18:58:55.161Z,23.40
2018-08-22T19:01:23.306Z,23.40
2018-08-22T19:03:51.498Z,23.30
2018-08-22T19:06:19.613Z,23.30
2018-08-22T19:08:47.738Z,23.20
2018-08-22T19:11:15.871Z,23.00
2018-08-22T19:13:43.993Z,22.90
2018-08-22T19:16:12.121Z,22.80
2018-08-22T19:18:40.290Z,22.80
2018-08-22T19:21:09.815Z,22.80
2018-08-22T19:23:37.936Z,22.80
2018-08-22T19:26:06.887Z,22.80
2018-08-22T19:28:50.966Z,22.80
2018-08-22T19:31:19.107Z,22.80
2018-08-22T19:33:47.229Z,22.60
2018-08-22T19:36:15.346Z,22.30
2018-08-22T19:38:44.033Z,22.10
2018-08-22T19:41:22.498Z,22.10
2018-08-22T19:43:50.721Z,22.00
2018-08-22T19:46:18.957Z,22.00
2018-08-22T19:48:47.070Z,22.00
2018-08-22T19:51:15.193Z,21.90
2018-08-22T19:53:55.201Z,21.80
2018-08-22T19:56:23.507Z,21.70
2018-08-22T19:58:51.624Z,21.50
2018-08-22T20:01:20.541Z,21.50
2018-08-22T20:03:52.653Z,21.40
2018-08-22T20:06:21.207Z,21.40
2018-08-22T20:08:51.982Z,21.40
2018-08-22T20:11:20.299Z,21.30
2018-08-22T20:13:51.757Z,21.30
2018-08-22T20:16:21.063Z,21.20
2018-08-22T20:18:52.550Z,20.90
2018-08-22T20:21:28.255Z,20.80
2018-08-22T20:23:56.532Z,20.70
2018-08-22T20:26:25.333Z,20.70
2018-08-22T20:28:55.808Z,20.70
2018-08-22T20:31:23.950Z,20.80
2018-08-22T20:34:04.593Z,20.80
2018-08-22T20:36:32.854Z,20.90
2018-08-22T20:39:07.185Z,21.00
2018-08-22T20:41:35.718Z,21.00
2018-08-22T20:44:11.724Z,21.10
2018-08-22T20:46:40.622Z,21.10
2018-08-22T20:49:08.766Z,21.20
2018-08-22T20:51:36.958Z,21.30
2018-08-22T20:54:06.982Z,21.30
2018-08-22T20:56:35.874Z,21.20
2018-08-22T20:59:04.071Z,21.20
2018-08-22T21:01:32.205Z,21.10
2018-08-22T21:04:00.354Z,21.10
2018-08-22T21:06:28.518Z,21.00
2018-08-22T21:08:56.662Z,20.90
2018-08-22T21:11:24.802Z,20.90
2018-08-22T21:13:53.010Z,20.90
2018-08-22T21:16:21.069Z,20.90
2018-08-22T21:18:49.214Z,20.90
2018-08-22T21:21:21.582Z,20.90
2018-08-22T21:23:50.810Z,20.90
2018-08-22T21:26:35.150Z,20.90
2018-08-22T21:29:03.439Z,20.90
2018-08-22T21:31:31.645Z,20.90
2018-08-22T21:34:06.446Z,20.80
2018-08-22T21:36:35.627Z,20.80
2018-08-22T21:39:10.034Z,20.70
2018-08-22T21:41:38.208Z,20.70
2018-08-22T21:44:06.574Z,20.70
2018-08-22T21:46:34.694Z,20.70
2018-08-22T21:49:08.088Z,20.70
2018-08-22T21:51:38.218Z,20.80
2018-08-22T21:54:06.893Z,20.70
2018-08-22T21:56:35.035Z,20.70
2018-08-22T21:59:03.448Z,20.70
2018-08-22T22:01:36.845Z,20.70
2018-08-22T22:04:04.983Z,20.70
2018-08-22T22:06:33.101Z,20.70
2018-08-22T22:09:01.999Z,20.80
2018-08-22T22:11:30.118Z,20.80
2018-08-22T22:14:07.901Z,20.90
2018-08-22T22:16:36.025Z,20.90
2018-08-22T22:19:04.158Z,20.80
2018-08-22T22:21:32.284Z,20.70
2018-08-22T22:24:00.410Z,20.70
2018-08-22T22:26:28.538Z,20.60
2018-08-22T22:28:56.673Z,20.60
2018-08-22T22:31:24.802Z,20.60
2018-08-22T22:34:02.959Z,20.50
2018-08-22T22:36:31.950Z,20.30
2018-08-22T22:39:00.113Z,20.10
2018-08-22T22:41:29.525Z,19.00
2018-08-22T22:43:57.661Z,20.00
2018-08-22T22:46:25.795Z,19.80
2018-08-22T22:48:53.938Z,19.80
2018-08-22T22:51:22.067Z,19.80
2018-08-22T22:53:50.206Z,19.90
2018-08-22T22:56:18.342Z,20.00
2018-08-22T22:58:46.591Z,20.00
2018-08-22T23:01:14.705Z,20.10
2018-08-22T23:03:42.854Z,20.10
2018-08-22T23:06:11.008Z,20.10
2018-08-22T23:08:39.145Z,20.10
2018-08-22T23:11:07.277Z,20.10
2018-08-22T23:13:35.409Z,20.10
2018-08-22T23:16:03.552Z,20.00
2018-08-22T23:18:31.713Z,20.00
2018-08-22T23:21:00.189Z,20.00
2018-08-22T23:23:37.906Z,20.00
2018-08-22T23:26:12.609Z,20.10
2018-08-22T23:28:41.218Z,19.90
2018-08-22T23:31:09.389Z,19.80
2018-08-22T23:33:37.559Z,19.60
2018-08-22T23:36:05.705Z,19.60
2018-08-22T23:38:35.354Z,19.50
2018-08-22T23:41:03.856Z,19.60
2018-08-22T23:43:39.861Z,19.70
2018-08-22T23:46:09.293Z,19.80
2018-08-22T23:48:37.770Z,19.80
2018-08-22T23:51:07.999Z,19.90
2018-08-22T23:53:41.710Z,19.70
2018-08-22T23:56:16.941Z,19.80
2018-08-22T23:58:46.038Z,19.80
